createdAt,value
2019-01-17T00:00:23.404Z,12.50
2019-01-17T00:03:05.505Z,11.77
2019-01-17T00:06:02.314Z,11.70
2019-01-17T00:09:20.717Z,11.20
2019-01-17T00:12:02.213Z,12.80
2019-01-17T00:14:50.748Z,11.93
2019-01-17T00:17:41.064Z,11.50
2019-01-17T00:20:45.436Z,11.80
2019-01-17T00:23:31.679Z,12.23
2019-01-17T00:26:31.523Z,11.70
2019-01-17T00:29:22.385Z,11.80
2019-01-17T00:32:22.731Z,11.77
2019-01-17T00:37:56.552Z,11.97
2019-01-17T00:40:43.178Z,12.73
2019-01-17T00:43:29.528Z,10.80
2019-01-17T00:46:22.346Z,11.43
2019-01-17T00:48:59.012Z,11.43
2019-01-17T00:51:45.454Z,10.30
2019-01-17T00:54:42.399Z,11.00
2019-01-17T00:57:28.801Z,11.67
2019-01-17T01:00:19.760Z,10.83
2019-01-17T01:03:10.846Z,11.07
2019-01-17T01:06:07.668Z,10.43
2019-01-17T01:09:01.353Z,10.87
2019-01-17T01:11:49.369Z,11.73
2019-01-17T01:14:56.896Z,12.33
2019-01-17T01:17:35.214Z,11.00
2019-01-17T01:20:29.585Z,12.07
2019-01-17T01:23:23.519Z,11.03
2019-01-17T01:29:12.652Z,10.90
2019-01-17T01:31:51.986Z,10.50
2019-01-17T01:34:44.103Z,12.13
2019-01-17T01:37:30.408Z,11.50
2019-01-17T01:40:16.996Z,11.30
2019-01-17T01:43:04.754Z,11.80
2019-01-17T01:49:09.198Z,11.10
2019-01-17T01:52:12.161Z,11.07
2019-01-17T01:54:52.677Z,12.10
2019-01-17T01:57:21.949Z,11.27
2019-01-17T01:59:51.002Z,10.63
2019-01-17T02:02:19.732Z,11.73
2019-01-17T02:05:00.457Z,11.13
2019-01-17T02:07:29.245Z,11.40
2019-01-17T02:09:57.921Z,11.40
2019-01-17T02:12:26.742Z,10.83
2019-01-17T02:15:04.768Z,11.10
2019-01-17T02:17:33.558Z,11.60
2019-01-17T02:20:02.435Z,12.40
2019-01-17T02:22:31.278Z,10.80
2019-01-17T02:25:08.935Z,10.13
2019-01-17T02:27:37.713Z,9.23
2019-01-17T02:30:06.864Z,10.47
2019-01-17T02:32:38.502Z,9.70
2019-01-17T02:35:16.343Z,8.77
2019-01-17T02:37:45.032Z,8.73
2019-01-17T02:40:13.826Z,8.77
2019-01-17T02:42:42.644Z,8.27
2019-01-17T02:45:20.314Z,8.37
2019-01-17T02:47:49.111Z,8.10
2019-01-17T02:50:17.957Z,8.27
2019-01-17T02:52:46.950Z,6.87
2019-01-17T02:55:24.559Z,7.73
2019-01-17T02:57:53.719Z,7.77
2019-01-17T03:00:22.459Z,8.10
2019-01-17T03:02:52.932Z,8.80
2019-01-17T03:05:30.877Z,8.80
2019-01-17T03:07:59.825Z,8.00
2019-01-17T03:10:30.182Z,7.93
2019-01-17T03:12:59.097Z,7.93
2019-01-17T03:15:37.335Z,7.33
2019-01-17T03:18:06.147Z,7.93
2019-01-17T03:20:34.887Z,7.20
2019-01-17T03:23:03.628Z,7.07
2019-01-17T03:25:41.745Z,7.03
2019-01-17T03:28:10.643Z,6.63
2019-01-17T03:30:39.654Z,6.37
2019-01-17T03:33:08.486Z,6.97
2019-01-17T03:35:46.345Z,6.37
2019-01-17T03:38:15.320Z,6.60
2019-01-17T03:40:44.434Z,6.23
2019-01-17T03:43:13.438Z,6.57
2019-01-17T03:45:52.566Z,6.40
2019-01-17T03:48:21.403Z,5.70
2019-01-17T03:50:50.692Z,5.80
2019-01-17T03:53:19.542Z,5.37
2019-01-17T03:55:57.704Z,5.60
2019-01-17T03:58:26.468Z,6.57
2019-01-17T04:00:55.459Z,5.70
2019-01-17T04:03:24.270Z,5.73
2019-01-17T04:06:01.964Z,5.23
2019-01-17T04:08:30.751Z,5.20
2019-01-17T04:10:59.529Z,5.27
2019-01-17T04:13:28.327Z,6.00
2019-01-17T04:16:07.533Z,6.40
2019-01-17T04:18:36.529Z,5.87
2019-01-17T04:21:05.407Z,5.70
2019-01-17T04:23:34.133Z,5.47
2019-01-17T04:26:14.751Z,6.23
2019-01-17T04:28:43.475Z,5.70
2019-01-17T04:31:12.382Z,6.37
2019-01-17T04:33:41.119Z,5.57
2019-01-17T04:36:18.806Z,5.57
2019-01-17T04:38:47.571Z,5.83
2019-01-17T04:41:16.278Z,5.67
2019-01-17T04:43:45.009Z,5.40
2019-01-17T04:46:22.659Z,5.30
2019-01-17T04:48:51.430Z,5.50
2019-01-17T04:51:20.144Z,5.37
2019-01-17T04:53:48.836Z,5.53
2019-01-17T04:56:26.789Z,5.27
2019-01-17T04:58:55.539Z,5.53
2019-01-17T05:01:24.294Z,5.20
2019-01-17T05:03:53.660Z,5.37
2019-01-17T05:06:22.658Z,5.37
2019-01-17T05:08:52.003Z,5.07
2019-01-17T05:11:20.826Z,5.77
2019-01-17T05:13:49.537Z,5.67
2019-01-17T05:16:28.294Z,5.00
2019-01-17T05:18:57.076Z,4.87
2019-01-17T05:21:25.977Z,5.00
2019-01-17T05:23:54.858Z,5.43
2019-01-17T05:26:33.293Z,5.40
2019-01-17T05:29:02.302Z,4.67
2019-01-17T05:31:31.243Z,5.47
2019-01-17T05:34:00.129Z,4.90
2019-01-17T05:36:37.839Z,4.60
2019-01-17T05:39:07.684Z,4.63
2019-01-17T05:41:36.721Z,5.23
2019-01-17T05:44:05.613Z,5.10
2019-01-17T05:49:18.630Z,5.43
2019-01-17T05:51:47.427Z,5.80
2019-01-17T05:54:16.247Z,5.57
2019-01-17T05:56:54.027Z,5.50
2019-01-17T05:59:22.960Z,4.63
2019-01-17T06:01:51.949Z,5.50
2019-01-17T06:04:20.953Z,5.03
2019-01-17T06:06:58.724Z,4.80
2019-01-17T06:09:27.469Z,5.17
2019-01-17T06:11:56.225Z,4.90
2019-01-17T06:14:25.042Z,5.57
2019-01-17T06:17:03.082Z,5.17
2019-01-17T06:19:31.974Z,5.23
2019-01-17T06:22:00.757Z,5.33
2019-01-17T06:24:29.755Z,5.13
2019-01-17T06:27:07.570Z,4.97
2019-01-17T06:29:36.589Z,4.87
2019-01-17T06:32:05.653Z,5.63
2019-01-17T06:34:49.466Z,5.80
2019-01-17T06:37:18.239Z,5.53
2019-01-17T06:39:46.984Z,4.97
2019-01-17T06:42:15.728Z,5.10
2019-01-17T06:44:53.596Z,5.10
2019-01-17T06:47:22.445Z,5.30
2019-01-17T06:49:51.321Z,5.10
2019-01-17T06:52:20.318Z,5.33
2019-01-17T06:54:58.461Z,5.30
2019-01-17T06:57:27.284Z,5.70
2019-01-17T06:59:56.030Z,5.13
2019-01-17T07:02:24.819Z,5.00
2019-01-17T07:05:02.944Z,4.87
2019-01-17T07:07:32.089Z,5.10
2019-01-17T07:10:00.996Z,4.90
2019-01-17T07:12:29.980Z,5.00
2019-01-17T07:15:08.116Z,4.93
2019-01-17T07:17:37.037Z,5.33
2019-01-17T07:20:06.504Z,4.90
2019-01-17T07:22:35.369Z,5.63
2019-01-17T07:25:14.394Z,5.03
2019-01-17T07:27:43.543Z,5.30
2019-01-17T07:30:15.308Z,4.87
2019-01-17T07:32:44.536Z,4.70
2019-01-17T07:38:35.305Z,5.00
2019-01-17T07:41:04.582Z,4.63
2019-01-17T07:43:33.450Z,4.77
2019-01-17T07:46:11.358Z,5.57
2019-01-17T07:48:40.064Z,4.57
2019-01-17T07:51:08.808Z,4.60
2019-01-17T07:53:37.578Z,4.87
2019-01-17T07:56:15.740Z,4.83
2019-01-17T07:58:44.424Z,4.70
2019-01-17T08:01:15.012Z,4.53
2019-01-17T08:03:44.325Z,4.40
2019-01-17T08:06:22.232Z,5.10
2019-01-17T08:08:53.120Z,4.70
2019-01-17T08:11:22.374Z,5.53
2019-01-17T08:13:54.142Z,4.97
2019-01-17T08:16:23.164Z,4.87
2019-01-17T08:18:55.142Z,5.40
2019-01-17T08:21:23.875Z,5.17
2019-01-17T08:23:53.127Z,5.33
2019-01-17T08:26:31.085Z,5.13
2019-01-17T08:29:00.142Z,5.33
2019-01-17T08:31:31.071Z,5.73
2019-01-17T08:34:01.430Z,5.40
2019-01-17T08:36:39.389Z,5.47
2019-01-17T08:39:09.291Z,5.27
2019-01-17T08:41:38.817Z,5.43
2019-01-17T08:44:08.031Z,5.23
2019-01-17T08:46:46.228Z,5.73
2019-01-17T08:49:15.169Z,5.83
2019-01-17T08:51:44.098Z,6.00
2019-01-17T08:54:13.123Z,6.23
2019-01-17T08:56:51.305Z,5.63
2019-01-17T08:59:20.173Z,6.07
2019-01-17T09:01:48.894Z,6.40
2019-01-17T09:04:17.644Z,6.20
2019-01-17T09:07:07.901Z,6.10
2019-01-17T09:09:36.988Z,6.80
2019-01-17T09:12:08.589Z,7.33
2019-01-17T09:14:39.848Z,7.10
2019-01-17T09:17:17.654Z,7.47
2019-01-17T09:19:46.482Z,7.67
2019-01-17T09:22:15.457Z,7.60
2019-01-17T09:25:01.320Z,8.40
2019-01-17T09:27:30.103Z,7.47
2019-01-17T09:29:59.010Z,7.93
2019-01-17T09:32:29.546Z,7.73
2019-01-17T09:35:08.787Z,8.07
2019-01-17T09:37:40.652Z,8.10
2019-01-17T09:40:12.177Z,8.07
2019-01-17T09:42:41.029Z,7.87
2019-01-17T09:45:18.501Z,8.50
2019-01-17T09:47:47.662Z,8.13
2019-01-17T09:50:18.367Z,8.30
2019-01-17T09:52:47.288Z,8.40
2019-01-17T09:55:37.491Z,8.60
2019-01-17T09:58:07.098Z,9.53
2019-01-17T10:00:36.014Z,9.37
2019-01-17T10:03:04.969Z,9.60
2019-01-17T10:05:43.048Z,8.77
2019-01-17T10:08:14.014Z,9.73
2019-01-17T10:10:42.864Z,9.20
2019-01-17T10:13:11.631Z,9.20
2019-01-17T10:15:53.818Z,8.70
2019-01-17T10:19:06.081Z,9.00
2019-01-17T10:22:10.825Z,9.03
2019-01-17T10:25:18.020Z,8.07
2019-01-17T10:28:46.079Z,8.10
2019-01-17T10:31:48.169Z,8.97
2019-01-17T10:34:39.261Z,8.00
2019-01-17T10:41:10.670Z,8.70
2019-01-17T10:43:48.461Z,8.37
2019-01-17T10:46:51.912Z,8.97
2019-01-17T10:49:33.221Z,8.10
2019-01-17T10:52:51.235Z,8.60
2019-01-17T10:55:57.583Z,8.77
2019-01-17T10:58:35.557Z,8.43
2019-01-17T11:01:42.942Z,8.37
2019-01-17T11:04:25.100Z,8.13
2019-01-17T11:07:30.740Z,8.07
2019-01-17T11:10:22.951Z,8.83
2019-01-17T11:13:07.712Z,8.43
2019-01-17T11:16:02.302Z,7.97
2019-01-17T11:19:00.416Z,8.07
2019-01-17T11:22:07.809Z,7.33
2019-01-17T11:25:25.977Z,7.03
2019-01-17T11:28:21.285Z,6.60
2019-01-17T11:31:17.454Z,6.23
2019-01-17T11:34:30.449Z,4.83
2019-01-17T11:38:01.727Z,4.63
2019-01-17T11:40:56.505Z,3.30
2019-01-17T11:44:21.849Z,3.10
2019-01-17T11:47:45.262Z,2.93
2019-01-17T11:50:24.345Z,2.97
2019-01-17T11:53:19.638Z,2.57
2019-01-17T11:56:28.496Z,2.50
2019-01-17T11:59:33.024Z,2.63
2019-01-17T12:02:24.621Z,2.50
2019-01-17T12:04:52.173Z,2.70
2019-01-17T12:07:29.897Z,2.30
2019-01-17T12:09:58.800Z,2.90
2019-01-17T12:12:29.891Z,3.13
2019-01-17T12:14:59.544Z,2.53
2019-01-17T12:17:28.904Z,2.23
2019-01-17T12:19:58.570Z,2.23
2019-01-17T12:22:27.430Z,2.00
2019-01-17T12:24:56.150Z,2.10
2019-01-17T12:27:34.314Z,2.07
2019-01-17T12:30:03.086Z,2.00
2019-01-17T12:32:31.882Z,1.97
2019-01-17T12:35:00.790Z,2.07
2019-01-17T12:37:38.687Z,1.90
2019-01-17T12:40:09.022Z,1.80
2019-01-17T12:42:37.921Z,1.73
2019-01-17T12:45:07.213Z,1.90
2019-01-17T12:47:46.139Z,1.80
2019-01-17T12:50:18.936Z,1.57
2019-01-17T12:52:47.632Z,1.70
2019-01-17T12:55:16.495Z,1.47
2019-01-17T12:57:57.455Z,1.63
2019-01-17T13:00:26.251Z,2.20
2019-01-17T13:02:55.017Z,1.57
2019-01-17T13:05:38.688Z,1.47
2019-01-17T13:10:41.889Z,1.47
2019-01-17T13:13:10.979Z,1.50
2019-01-17T13:15:48.840Z,1.50
2019-01-17T13:18:17.645Z,1.63
2019-01-17T13:20:46.399Z,1.50
2019-01-17T13:23:15.384Z,1.60
2019-01-17T13:25:53.929Z,2.47
2019-01-17T13:28:22.795Z,1.53
2019-01-17T13:30:51.979Z,1.60
2019-01-17T13:33:23.886Z,1.63
2019-01-17T13:36:01.887Z,1.73
2019-01-17T13:38:30.680Z,1.70
2019-01-17T13:40:59.596Z,1.40
2019-01-17T13:43:28.465Z,1.47
2019-01-17T13:46:06.539Z,1.40
2019-01-17T13:48:35.445Z,1.43
2019-01-17T13:51:04.357Z,1.53
2019-01-17T13:53:33.243Z,1.30
2019-01-17T13:56:11.146Z,1.23
2019-01-17T13:58:39.929Z,1.50
2019-01-17T14:01:08.657Z,1.50
2019-01-17T14:03:37.437Z,1.50
2019-01-17T14:06:15.308Z,1.27
2019-01-17T14:08:44.309Z,1.40
2019-01-17T14:11:13.088Z,1.30
2019-01-17T14:13:42.010Z,1.43
2019-01-17T14:16:19.851Z,1.53
2019-01-17T14:18:48.551Z,1.40
2019-01-17T14:21:17.246Z,1.90
2019-01-17T14:23:46.335Z,1.63
2019-01-17T14:26:24.064Z,1.50
2019-01-17T14:28:53.122Z,1.50
2019-01-17T14:31:22.118Z,1.60
2019-01-17T14:33:51.049Z,1.73
2019-01-17T14:36:28.966Z,1.80
2019-01-17T14:38:57.916Z,2.43
2019-01-17T14:41:26.655Z,1.77
2019-01-17T14:43:55.485Z,1.60
2019-01-17T14:49:08.634Z,1.50
2019-01-17T14:51:38.154Z,1.60
2019-01-17T14:54:06.933Z,1.50
2019-01-17T14:59:19.231Z,1.67
2019-01-17T15:01:47.965Z,1.73
2019-01-17T15:04:17.137Z,1.60
2019-01-17T15:06:54.962Z,1.70
2019-01-17T15:09:23.697Z,1.70
2019-01-17T15:11:52.390Z,1.70
2019-01-17T15:14:21.233Z,1.70
2019-01-17T15:17:02.115Z,1.50
2019-01-17T15:19:30.925Z,1.97
2019-01-17T15:22:02.091Z,1.67
2019-01-17T15:24:30.826Z,1.80
2019-01-17T15:27:08.821Z,1.80
2019-01-17T15:29:39.988Z,1.33
2019-01-17T15:32:08.837Z,1.37
2019-01-17T15:34:37.694Z,1.80
2019-01-17T15:37:15.724Z,1.30
2019-01-17T15:39:46.307Z,1.57
2019-01-17T15:42:36.655Z,1.53
2019-01-17T15:45:05.908Z,1.50
2019-01-17T15:47:34.738Z,1.80
2019-01-17T15:50:03.733Z,2.00
2019-01-17T15:55:16.557Z,1.63
2019-01-17T15:57:45.525Z,1.60
2019-01-17T16:00:31.770Z,1.43
2019-01-17T16:03:09.961Z,1.60
2019-01-17T16:05:39.052Z,1.40
2019-01-17T16:08:08.003Z,1.50
2019-01-17T16:10:36.810Z,1.90
2019-01-17T16:13:14.889Z,1.50
2019-01-17T16:15:43.851Z,1.30
2019-01-17T16:18:12.839Z,1.50
2019-01-17T16:20:41.534Z,1.30
2019-01-17T16:23:19.524Z,1.60
2019-01-17T16:25:48.976Z,1.30
2019-01-17T16:28:17.955Z,1.70
2019-01-17T16:30:46.897Z,1.33
2019-01-17T16:36:01.503Z,1.23
2019-01-17T16:38:30.690Z,1.50
2019-01-17T16:40:59.672Z,1.27
2019-01-17T16:43:28.709Z,1.43
2019-01-17T16:45:57.613Z,1.40
2019-01-17T16:48:26.568Z,1.37
2019-01-17T16:50:55.341Z,1.37
2019-01-17T16:53:33.310Z,1.97
2019-01-17T16:56:01.973Z,1.90
2019-01-17T16:58:30.849Z,1.57
2019-01-17T17:01:00.015Z,1.30
2019-01-17T17:03:38.137Z,1.10
2019-01-17T17:06:10.087Z,1.50
2019-01-17T17:08:38.899Z,1.50
2019-01-17T17:11:07.948Z,1.63
2019-01-17T17:13:45.705Z,1.40
2019-01-17T17:16:14.491Z,1.33
2019-01-17T17:18:43.325Z,1.60
2019-01-17T17:21:12.445Z,1.50
2019-01-17T17:23:50.534Z,1.70
2019-01-17T17:26:19.330Z,1.67
2019-01-17T17:28:48.062Z,1.87
2019-01-17T17:31:16.894Z,1.73
2019-01-17T17:34:06.896Z,1.33
2019-01-17T17:36:35.988Z,1.90
2019-01-17T17:39:07.729Z,1.57
2019-01-17T17:41:36.598Z,1.57
2019-01-17T17:44:16.642Z,1.33
2019-01-17T17:46:45.456Z,1.60
2019-01-17T17:49:14.330Z,1.83
2019-01-17T17:51:46.381Z,1.30
2019-01-17T17:54:24.598Z,1.60
2019-01-17T17:56:53.618Z,1.57
2019-01-17T17:59:22.964Z,1.30
2019-01-17T18:01:58.789Z,1.53
2019-01-17T18:04:36.620Z,1.13
2019-01-17T18:07:05.453Z,1.40
2019-01-17T18:09:34.164Z,1.80
2019-01-17T18:12:03.159Z,1.80
2019-01-17T18:14:41.068Z,1.27
2019-01-17T18:17:09.782Z,1.70
2019-01-17T18:19:47.708Z,1.40
2019-01-17T18:22:16.633Z,1.63
2019-01-17T18:24:45.457Z,1.70
2019-01-17T18:27:14.454Z,1.90
2019-01-17T18:29:43.295Z,1.70
2019-01-17T18:32:21.281Z,1.67
2019-01-17T18:34:50.156Z,1.60
2019-01-17T18:37:19.241Z,1.80
2019-01-17T18:39:48.148Z,2.17
2019-01-17T18:42:26.158Z,1.40
2019-01-17T18:44:54.827Z,1.70
2019-01-17T18:47:23.887Z,1.40
2019-01-17T18:49:52.664Z,1.47
2019-01-17T18:52:30.545Z,1.50
2019-01-17T18:54:59.419Z,1.87
2019-01-17T18:57:28.242Z,1.80
2019-01-17T18:59:57.559Z,1.87
2019-01-17T19:02:36.109Z,1.90
2019-01-17T19:05:05.464Z,2.13
2019-01-17T19:07:36.384Z,2.10
2019-01-17T19:10:05.320Z,1.60
2019-01-17T19:12:43.237Z,1.60
2019-01-17T19:15:14.796Z,2.50
2019-01-17T19:17:43.721Z,2.07
2019-01-17T19:20:14.128Z,2.80
2019-01-17T19:25:30.461Z,2.53
2019-01-17T19:27:59.591Z,2.20
2019-01-17T19:30:30.090Z,2.30
2019-01-17T19:33:08.924Z,2.57
2019-01-17T19:35:38.137Z,3.57
2019-01-17T19:38:07.149Z,3.20
2019-01-17T19:40:36.146Z,3.37
2019-01-17T19:43:14.043Z,3.23
2019-01-17T19:45:42.796Z,3.00
2019-01-17T19:48:11.580Z,2.80
2019-01-17T19:50:40.379Z,2.87
2019-01-17T19:53:18.525Z,3.10
2019-01-17T19:55:47.241Z,3.33
2019-01-17T19:58:16.016Z,3.63
2019-01-17T20:00:46.938Z,3.73
2019-01-17T20:03:24.820Z,4.47
2019-01-17T20:05:53.606Z,3.93
2019-01-17T20:08:22.440Z,4.30
2019-01-17T20:10:51.752Z,3.60
2019-01-17T20:13:31.701Z,3.60
2019-01-17T20:16:00.626Z,4.00
2019-01-17T20:18:29.644Z,3.97
2019-01-17T20:20:58.851Z,4.33
2019-01-17T20:23:36.737Z,4.17
2019-01-17T20:26:05.609Z,4.40
2019-01-17T20:28:35.818Z,5.10
2019-01-17T20:31:04.769Z,5.10
2019-01-17T20:33:42.852Z,5.10
2019-01-17T20:36:11.560Z,4.37
2019-01-17T20:38:40.261Z,6.03
2019-01-17T20:41:09.044Z,5.07
2019-01-17T20:43:47.117Z,5.00
2019-01-17T20:46:16.491Z,5.20
2019-01-17T20:48:54.467Z,5.60
2019-01-17T20:51:24.679Z,2.80
2019-01-17T20:53:53.593Z,0.00
2019-01-17T20:56:22.410Z,0.30
2019-01-17T20:59:00.638Z,0.00
2019-01-17T21:01:56.984Z,0.40
2019-01-17T21:04:36.350Z,0.00
2019-01-17T21:07:05.823Z,0.03
2019-01-17T21:09:34.650Z,0.00
2019-01-17T21:12:03.452Z,0.00
2019-01-17T21:17:16.487Z,0.00
2019-01-17T21:19:47.267Z,0.10
2019-01-17T21:22:16.098Z,0.00
2019-01-17T21:24:54.055Z,0.00
2019-01-17T21:27:22.948Z,0.00
2019-01-17T21:29:55.098Z,0.00
2019-01-17T21:32:24.605Z,0.00
2019-01-17T21:35:02.611Z,0.10
2019-01-17T21:37:31.500Z,0.00
2019-01-17T21:40:00.287Z,0.10
2019-01-17T21:42:32.110Z,0.00
2019-01-17T21:45:22.387Z,0.00
2019-01-17T21:47:51.410Z,0.00
2019-01-17T21:50:23.015Z,0.03
2019-01-17T21:52:52.026Z,0.57
2019-01-17T21:55:32.394Z,0.40
2019-01-17T21:58:01.411Z,0.20
2019-01-17T22:00:30.284Z,0.07
2019-01-17T22:02:59.576Z,0.00
2019-01-17T22:05:37.841Z,0.00
2019-01-17T22:08:07.881Z,0.10
2019-01-17T22:10:39.830Z,0.00
2019-01-17T22:13:08.511Z,1.40
2019-01-17T22:15:46.360Z,0.00
2019-01-17T22:18:16.030Z,0.00
2019-01-17T22:20:44.957Z,0.10
2019-01-17T22:23:16.192Z,0.07
2019-01-17T22:25:54.053Z,0.10
2019-01-17T22:28:24.920Z,0.00
2019-01-17T22:30:53.894Z,0.00
2019-01-17T22:33:36.184Z,0.00
2019-01-17T22:36:17.408Z,0.00
2019-01-17T22:38:46.305Z,0.20
2019-01-17T22:41:15.184Z,0.03
2019-01-17T22:43:53.587Z,0.10
2019-01-17T22:46:25.341Z,0.13
2019-01-17T22:48:54.094Z,0.00
2019-01-17T22:51:24.939Z,0.10
2019-01-17T22:54:02.949Z,0.00
2019-01-17T22:56:31.630Z,0.53
2019-01-17T22:59:00.372Z,0.53
2019-01-17T23:01:29.974Z,0.00
2019-01-17T23:04:07.964Z,0.10
2019-01-17T23:06:36.748Z,0.10
2019-01-17T23:09:08.421Z,0.00
2019-01-17T23:11:39.535Z,0.93
2019-01-17T23:14:17.563Z,0.00
2019-01-17T23:16:46.356Z,0.00
2019-01-17T23:19:27.885Z,0.00
2019-01-17T23:21:57.433Z,0.00
2019-01-17T23:24:35.338Z,0.33
2019-01-17T23:27:04.058Z,0.00
2019-01-17T23:29:32.750Z,0.10
2019-01-17T23:32:01.560Z,0.17
2019-01-17T23:34:39.484Z,0.10
2019-01-17T23:37:08.215Z,0.10
2019-01-17T23:39:36.893Z,0.00
2019-01-17T23:42:05.590Z,0.10
2019-01-17T23:44:43.547Z,0.00
2019-01-17T23:47:12.299Z,0.00
2019-01-17T23:49:41.086Z,0.00
2019-01-17T23:52:10.952Z,0.10
2019-01-17T23:54:51.267Z,0.23
2019-01-17T23:57:20.089Z,0.13
2019-01-17T23:59:48.880Z,0.10
